createdAt,value
2023-01-11T00:00:49.891Z,83.44
2023-01-11T00:03:17.241Z,83.34
2023-01-11T00:05:44.161Z,83.60
2023-01-11T00:08:11.396Z,84.00
2023-01-11T00:10:37.803Z,84.37
2023-01-11T00:13:04.342Z,84.74
2023-01-11T00:15:30.838Z,85.26
2023-01-11T00:17:57.773Z,85.56
2023-01-11T00:20:24.674Z,85.37
2023-01-11T00:22:51.100Z,85.64
2023-01-11T00:25:17.845Z,86.01
2023-01-11T00:27:44.334Z,85.97
2023-01-11T00:30:11.441Z,86.14
2023-01-11T00:32:37.872Z,86.27
2023-01-11T00:35:04.543Z,86.48
2023-01-11T00:37:30.984Z,86.70
2023-01-11T00:39:57.418Z,86.70
2023-01-11T00:42:42.440Z,86.51
2023-01-11T00:45:27.563Z,86.67
2023-01-11T00:47:57.033Z,86.66
2023-01-11T00:50:28.873Z,86.59
2023-01-11T00:52:55.403Z,86.44
2023-01-11T00:55:21.881Z,86.38
2023-01-11T00:57:48.561Z,86.19
2023-01-11T01:00:15.277Z,86.21
2023-01-11T01:02:41.840Z,86.00
2023-01-11T01:05:08.528Z,85.90
2023-01-11T01:07:34.983Z,85.95
2023-01-11T01:10:01.440Z,85.58
2023-01-11T01:12:46.441Z,85.12
2023-01-11T01:15:12.835Z,85.11
2023-01-11T01:17:39.371Z,85.26
2023-01-11T01:20:06.546Z,84.99
2023-01-11T01:22:32.970Z,84.88
2023-01-11T01:24:59.402Z,84.89
2023-01-11T01:27:26.395Z,84.54
2023-01-11T01:29:52.778Z,84.14
2023-01-11T01:32:19.168Z,84.22
2023-01-11T01:34:45.570Z,84.07
2023-01-11T01:37:11.994Z,84.05
2023-01-11T01:39:38.431Z,83.94
2023-01-11T01:42:06.004Z,83.70
2023-01-11T01:44:52.927Z,83.97
2023-01-11T01:47:41.357Z,83.70
2023-01-11T01:50:29.919Z,83.67
2023-01-11T01:53:00.605Z,83.79
2023-01-11T01:55:31.471Z,83.52
2023-01-11T01:57:58.675Z,83.53
2023-01-11T02:00:25.136Z,83.47
2023-01-11T02:02:51.966Z,83.56
2023-01-11T02:05:18.613Z,83.43
2023-01-11T02:07:46.299Z,83.65
2023-01-11T02:10:18.895Z,83.42
2023-01-11T02:13:05.450Z,83.30
2023-01-11T02:15:32.011Z,83.42
2023-01-11T02:17:58.448Z,83.34
2023-01-11T02:20:44.992Z,83.65
2023-01-11T02:23:17.236Z,83.48
2023-01-11T02:26:08.909Z,83.77
2023-01-11T02:28:45.287Z,83.66
2023-01-11T02:31:19.761Z,83.87
2023-01-11T02:34:07.934Z,83.76
2023-01-11T02:36:49.947Z,83.78
2023-01-11T02:39:22.406Z,83.73
2023-01-11T02:42:30.376Z,83.64
2023-01-11T02:45:18.499Z,83.84
2023-01-11T02:47:57.680Z,83.78
2023-01-11T02:50:44.108Z,83.94
2023-01-11T02:53:28.091Z,83.77
2023-01-11T02:55:57.441Z,83.88
2023-01-11T02:58:25.706Z,83.52
2023-01-11T03:00:55.618Z,83.73
2023-01-11T03:03:24.830Z,83.73
2023-01-11T03:05:55.062Z,83.62
2023-01-11T03:08:41.346Z,83.83
2023-01-11T03:11:11.675Z,83.66
2023-01-11T03:13:53.873Z,83.61
2023-01-11T03:16:27.981Z,83.76
2023-01-11T03:19:13.441Z,83.47
2023-01-11T03:22:00.923Z,83.61
2023-01-11T03:24:42.495Z,83.69
2023-01-11T03:27:20.368Z,83.97
2023-01-11T03:29:54.722Z,84.00
2023-01-11T03:32:43.461Z,84.21
2023-01-11T03:35:30.087Z,84.23
2023-01-11T03:38:06.676Z,84.33
2023-01-11T03:40:35.227Z,84.67
2023-01-11T03:43:13.729Z,84.89
2023-01-11T03:45:40.076Z,84.63
2023-01-11T03:48:12.124Z,84.86
2023-01-11T03:50:39.267Z,84.68
2023-01-11T03:53:07.293Z,84.61
2023-01-11T03:55:38.158Z,84.82
2023-01-11T03:58:04.623Z,84.61
2023-01-11T04:00:31.746Z,84.45
2023-01-11T04:03:00.342Z,84.69
2023-01-11T04:05:26.807Z,84.46
2023-01-11T04:07:53.827Z,84.46
2023-01-11T04:10:20.427Z,84.49
2023-01-11T04:12:49.243Z,84.67
2023-01-11T04:15:16.607Z,84.47
2023-01-11T04:17:43.183Z,84.47
2023-01-11T04:20:10.408Z,84.59
2023-01-11T04:22:36.852Z,84.60
2023-01-11T04:25:03.768Z,84.23
2023-01-11T04:27:30.182Z,84.48
2023-01-11T04:29:56.586Z,84.50
2023-01-11T04:32:23.095Z,84.12
2023-01-11T04:34:50.503Z,84.42
2023-01-11T04:37:16.956Z,84.53
2023-01-11T04:39:43.400Z,84.28
2023-01-11T04:42:21.086Z,84.34
2023-01-11T04:44:49.152Z,84.31
2023-01-11T04:47:16.320Z,84.28
2023-01-11T04:49:42.850Z,84.57
2023-01-11T04:52:13.860Z,84.46
2023-01-11T04:54:40.432Z,84.45
2023-01-11T04:57:07.475Z,84.47
2023-01-11T04:59:33.887Z,84.58
2023-01-11T05:02:00.376Z,84.62
2023-01-11T05:04:26.815Z,84.69
2023-01-11T05:06:53.428Z,84.90
2023-01-11T05:09:20.042Z,84.51
2023-01-11T05:11:46.471Z,84.51
2023-01-11T05:14:13.787Z,84.49
2023-01-11T05:16:40.300Z,84.59
2023-01-11T05:19:06.740Z,84.57
2023-01-11T05:21:35.582Z,84.77
2023-01-11T05:24:03.947Z,84.39
2023-01-11T05:26:34.605Z,84.32
2023-01-11T05:29:02.908Z,84.77
2023-01-11T05:31:31.214Z,84.59
2023-01-11T05:33:58.484Z,84.51
2023-01-11T05:36:26.201Z,84.37
2023-01-11T05:38:54.061Z,84.36
2023-01-11T05:41:21.796Z,84.15
2023-01-11T05:44:08.515Z,84.40
2023-01-11T05:46:36.376Z,84.38
2023-01-11T05:49:03.510Z,84.24
2023-01-11T05:51:30.843Z,84.16
2023-01-11T05:53:57.686Z,84.42
2023-01-11T05:56:24.124Z,83.99
2023-01-11T05:58:51.200Z,84.01
2023-01-11T06:01:19.149Z,83.95
2023-01-11T06:03:46.108Z,84.02
2023-01-11T06:06:13.168Z,83.86
2023-01-11T06:08:39.568Z,84.11
2023-01-11T06:11:06.047Z,84.08
2023-01-11T06:13:33.843Z,84.21
2023-01-11T06:16:11.862Z,84.53
2023-01-11T06:18:40.965Z,84.33
2023-01-11T06:21:08.503Z,84.54
2023-01-11T06:23:36.900Z,84.44
2023-01-11T06:26:05.391Z,84.17
2023-01-11T06:28:31.865Z,84.48
2023-01-11T06:30:59.291Z,84.73
2023-01-11T06:33:27.116Z,84.79
2023-01-11T06:35:54.053Z,84.83
2023-01-11T06:38:21.960Z,84.81
2023-01-11T06:41:00.271Z,84.59
2023-01-11T06:43:27.473Z,85.04
2023-01-11T06:45:54.245Z,84.93
2023-01-11T06:48:21.382Z,85.22
2023-01-11T06:50:52.563Z,85.27
2023-01-11T06:53:19.257Z,85.26
2023-01-11T06:55:49.612Z,85.28
2023-01-11T06:58:16.161Z,85.53
2023-01-11T07:00:42.657Z,85.59
2023-01-11T07:03:10.872Z,85.66
2023-01-11T07:05:37.409Z,85.90
2023-01-11T07:08:03.927Z,86.03
2023-01-11T07:10:30.405Z,86.27
2023-01-11T07:12:56.958Z,86.52
2023-01-11T07:15:23.415Z,86.24
2023-01-11T07:17:54.787Z,86.58
2023-01-11T07:20:21.368Z,86.68
2023-01-11T07:22:47.769Z,87.19
2023-01-11T07:25:14.218Z,86.78
2023-01-11T07:27:40.647Z,86.76
2023-01-11T07:30:09.780Z,86.91
2023-01-11T07:32:36.432Z,86.79
2023-01-11T07:35:02.949Z,86.96
2023-01-11T07:37:32.611Z,86.82
2023-01-11T07:39:59.071Z,86.95
2023-01-11T07:42:44.072Z,87.27
2023-01-11T07:45:10.939Z,87.18
2023-01-11T07:47:37.367Z,86.85
2023-01-11T07:50:04.045Z,87.21
2023-01-11T07:52:30.545Z,87.07
2023-01-11T07:55:02.176Z,87.25
2023-01-11T07:57:29.984Z,87.60
2023-01-11T07:59:56.576Z,88.09
2023-01-11T08:02:23.086Z,88.42
2023-01-11T08:04:49.589Z,88.11
2023-01-11T08:07:16.006Z,88.34
2023-01-11T08:09:42.433Z,88.15
2023-01-11T08:12:27.441Z,88.10
2023-01-11T08:14:53.886Z,88.56
2023-01-11T08:17:20.303Z,88.82
2023-01-11T08:19:46.732Z,89.62
2023-01-11T08:22:13.212Z,89.75
2023-01-11T08:24:39.754Z,89.64
2023-01-11T08:27:06.249Z,90.28
2023-01-11T08:29:32.671Z,90.81
2023-01-11T08:32:00.535Z,90.80
2023-01-11T08:34:29.091Z,90.76
2023-01-11T08:36:57.523Z,90.84
2023-01-11T08:39:24.676Z,90.59
2023-01-11T08:41:51.085Z,90.58
2023-01-11T08:44:29.094Z,90.60
2023-01-11T08:46:59.643Z,90.84
2023-01-11T08:49:26.076Z,90.44
2023-01-11T08:51:52.456Z,90.38
2023-01-11T08:54:18.862Z,90.36
2023-01-11T08:56:45.269Z,90.48
2023-01-11T08:59:11.736Z,90.90
2023-01-11T09:01:38.443Z,90.79
2023-01-11T09:04:15.571Z,91.00
2023-01-11T09:06:49.770Z,90.96
2023-01-11T09:09:16.218Z,91.52
2023-01-11T09:11:54.695Z,91.63
2023-01-11T09:14:21.687Z,91.65
2023-01-11T09:16:48.793Z,91.63
2023-01-11T09:19:15.275Z,92.07
2023-01-11T09:21:41.839Z,92.50
2023-01-11T09:24:08.359Z,92.12
2023-01-11T09:26:35.697Z,92.67
2023-01-11T09:29:02.222Z,92.57
2023-01-11T09:31:28.742Z,92.92
2023-01-11T09:33:55.281Z,93.44
2023-01-11T09:36:23.542Z,93.65
2023-01-11T09:38:52.665Z,93.97
2023-01-11T09:41:33.841Z,93.97
2023-01-11T09:44:16.274Z,94.07
2023-01-11T09:46:46.342Z,94.67
2023-01-11T09:49:23.718Z,94.81
2023-01-11T09:51:51.381Z,94.74
2023-01-11T09:54:20.973Z,95.02
2023-01-11T09:56:54.630Z,95.31
2023-01-11T09:59:27.473Z,95.46
2023-01-11T10:02:01.579Z,95.12
2023-01-11T10:04:45.845Z,95.69
2023-01-11T10:07:22.318Z,95.48
2023-01-11T10:18:44.520Z,96.16
2023-01-11T10:19:35.824Z,96.29
2023-01-11T10:22:18.045Z,96.37
2023-01-11T10:24:59.070Z,96.31
2023-01-11T10:27:30.771Z,96.35
2023-01-11T10:30:12.862Z,96.49
2023-01-11T10:33:14.802Z,96.78
2023-01-11T10:35:59.361Z,96.76
2023-01-11T10:39:11.855Z,96.64
2023-01-11T10:41:57.202Z,96.93
2023-01-11T10:44:31.378Z,96.62
2023-01-11T10:46:59.677Z,96.61
2023-01-11T10:50:03.550Z,96.98
2023-01-11T10:52:41.983Z,97.03
2023-01-11T10:55:13.342Z,96.73
2023-01-11T10:58:02.832Z,97.25
2023-01-11T11:00:47.393Z,97.04
2023-01-11T11:03:38.956Z,97.35
2023-01-11T11:06:17.710Z,97.51
2023-01-11T11:08:55.513Z,97.21
2023-01-11T11:11:31.237Z,97.43
2023-01-11T11:14:12.313Z,97.58
2023-01-11T11:16:51.340Z,97.47
2023-01-11T11:19:22.307Z,97.74
2023-01-11T11:21:49.637Z,97.60
2023-01-11T11:24:32.986Z,98.04
2023-01-11T11:27:21.748Z,97.84
2023-01-11T11:29:56.870Z,98.38
2023-01-11T11:32:27.162Z,98.49
2023-01-11T11:34:53.732Z,98.44
2023-01-11T11:37:26.406Z,98.54
2023-01-11T11:39:53.847Z,98.85
2023-01-11T11:42:21.850Z,99.26
2023-01-11T11:45:14.184Z,99.25
2023-01-11T11:47:40.627Z,99.39
2023-01-11T11:50:43.700Z,99.96
2023-01-11T11:53:27.598Z,99.70
2023-01-11T11:55:54.692Z,100.00
2023-01-11T11:58:23.150Z,100.00
2023-01-11T12:00:51.062Z,100.00
2023-01-11T12:03:30.072Z,100.00
2023-01-11T12:06:02.207Z,100.00
2023-01-11T12:08:30.072Z,100.00
2023-01-11T12:10:59.071Z,100.00
2023-01-11T12:13:34.004Z,100.00
2023-01-11T12:16:03.096Z,100.00
2023-01-11T12:18:42.338Z,100.00
2023-01-11T12:21:31.920Z,100.00
2023-01-11T12:24:07.773Z,100.00
2023-01-11T12:26:38.612Z,100.00
2023-01-11T12:29:14.017Z,100.00
2023-01-11T12:31:51.620Z,100.00
2023-01-11T12:34:35.624Z,100.00
2023-01-11T12:37:05.040Z,100.00
2023-01-11T12:39:43.649Z,100.00
2023-01-11T12:42:38.639Z,100.00
2023-01-11T12:45:29.984Z,100.00
2023-01-11T12:48:05.645Z,100.00
2023-01-11T12:50:59.907Z,100.00
2023-01-11T12:53:51.029Z,100.00
2023-01-11T12:56:39.468Z,100.00
2023-01-11T12:59:26.059Z,100.00
2023-01-11T13:02:05.911Z,100.00
2023-01-11T13:04:43.845Z,100.00
2023-01-11T13:07:33.996Z,100.00
2023-01-11T13:10:24.080Z,100.00
2023-01-11T13:13:02.685Z,100.00
2023-01-11T13:15:34.322Z,100.00
2023-01-11T13:18:22.781Z,100.00
2023-01-11T13:21:02.543Z,100.00
2023-01-11T13:23:42.785Z,100.00
2023-01-11T13:26:32.063Z,100.00
2023-01-11T13:29:05.160Z,100.00
2023-01-11T13:31:35.388Z,100.00
2023-01-11T13:34:06.952Z,100.00
2023-01-11T13:36:40.892Z,100.00
2023-01-11T13:39:17.737Z,100.00
2023-01-11T13:41:55.763Z,100.00
2023-01-11T13:44:27.294Z,100.00
2023-01-11T13:47:10.867Z,100.00
2023-01-11T13:49:45.942Z,100.00
2023-01-11T13:52:17.842Z,100.00
2023-01-11T13:54:58.840Z,100.00
2023-01-11T13:57:42.351Z,100.00
2023-01-11T14:00:32.768Z,100.00
2023-01-11T14:03:09.850Z,100.00
2023-01-11T14:05:59.226Z,100.00
2023-01-11T14:08:44.300Z,100.00
2023-01-11T14:11:28.988Z,100.00
2023-01-11T14:14:15.340Z,100.00
2023-01-11T14:17:07.478Z,100.00
2023-01-11T14:20:12.385Z,100.00
2023-01-11T14:23:13.405Z,100.00
2023-01-11T14:26:08.630Z,100.00
2023-01-11T14:28:52.128Z,100.00
2023-01-11T14:31:39.990Z,100.00
2023-01-11T14:34:19.985Z,100.00
2023-01-11T14:37:09.040Z,100.00
2023-01-11T14:39:56.641Z,100.00
2023-01-11T14:42:33.601Z,100.00
2023-01-11T14:45:13.296Z,100.00
2023-01-11T14:48:01.312Z,100.00
2023-01-11T14:50:40.858Z,100.00
2023-01-11T14:53:10.108Z,100.00
2023-01-11T14:55:45.041Z,100.00
2023-01-11T14:58:28.961Z,100.00
2023-01-11T15:00:55.368Z,100.00
2023-01-11T15:03:21.706Z,100.00
2023-01-11T15:06:14.655Z,100.00
2023-01-11T15:08:42.877Z,100.00
2023-01-11T15:11:22.953Z,100.00
2023-01-11T15:13:58.214Z,100.00
2023-01-11T15:16:47.950Z,100.00
2023-01-11T15:19:26.541Z,100.00
2023-01-11T15:21:55.621Z,100.00
2023-01-11T15:24:35.916Z,100.00
2023-01-11T15:27:02.839Z,100.00
2023-01-11T15:29:32.343Z,100.00
2023-01-11T15:32:01.987Z,100.00
2023-01-11T15:34:39.621Z,100.00
2023-01-11T15:37:43.640Z,100.00
2023-01-11T15:40:16.475Z,100.00
2023-01-11T15:43:01.272Z,100.00
2023-01-11T15:46:12.793Z,100.00
2023-01-11T15:49:19.482Z,100.00
2023-01-11T15:52:19.426Z,100.00
2023-01-11T15:55:19.884Z,100.00
2023-01-11T15:58:25.447Z,100.00
2023-01-11T16:00:58.799Z,100.00
2023-01-11T16:03:50.033Z,100.00
2023-01-11T16:06:30.092Z,100.00
2023-01-11T16:09:15.257Z,100.00
2023-01-11T16:11:54.416Z,100.00
2023-01-11T16:14:32.485Z,99.90
2023-01-11T16:16:59.091Z,98.95
2023-01-11T16:19:29.141Z,98.85
2023-01-11T16:21:59.016Z,98.96
2023-01-11T16:24:29.310Z,98.45
2023-01-11T16:27:23.154Z,98.33
2023-01-11T16:29:50.733Z,97.92
2023-01-11T16:32:32.584Z,97.72
2023-01-11T16:35:00.997Z,97.40
2023-01-11T16:37:37.646Z,97.36
2023-01-11T16:40:10.242Z,97.01
2023-01-11T16:42:42.702Z,96.33
2023-01-11T16:45:14.887Z,96.34
2023-01-11T16:47:41.313Z,95.83
2023-01-11T16:50:13.673Z,95.85
2023-01-11T16:52:53.436Z,95.53
2023-01-11T16:55:24.721Z,95.20
2023-01-11T16:57:57.570Z,95.30
2023-01-11T17:00:32.188Z,94.73
2023-01-11T17:03:20.202Z,94.90
2023-01-11T17:05:58.898Z,94.29
2023-01-11T17:08:34.819Z,94.10
2023-01-11T17:11:21.158Z,93.84
2023-01-11T17:13:57.034Z,93.38
2023-01-11T17:16:29.348Z,92.70
2023-01-11T17:18:58.907Z,92.89
2023-01-11T17:21:27.470Z,92.04
2023-01-11T17:23:58.441Z,91.80
2023-01-11T17:26:31.229Z,91.53
2023-01-11T17:28:58.805Z,91.28
2023-01-11T17:31:27.887Z,91.54
2023-01-11T17:34:08.419Z,90.85
2023-01-11T17:36:35.477Z,90.96
2023-01-11T17:39:02.907Z,90.62
2023-01-11T17:41:47.843Z,90.63
2023-01-11T17:44:35.856Z,90.61
2023-01-11T17:47:03.745Z,90.83
2023-01-11T17:49:32.135Z,90.64
2023-01-11T17:52:07.939Z,90.46
2023-01-11T17:54:34.365Z,90.56
2023-01-11T17:57:01.104Z,90.25
2023-01-11T17:59:29.826Z,89.49
2023-01-11T18:01:59.408Z,89.42
2023-01-11T18:04:27.233Z,88.73
2023-01-11T18:07:15.986Z,88.24
2023-01-11T18:09:47.447Z,87.55
2023-01-11T18:12:20.742Z,86.98
2023-01-11T18:14:55.966Z,86.52
2023-01-11T18:17:39.206Z,86.32
2023-01-11T18:20:14.931Z,86.23
2023-01-11T18:22:43.355Z,85.90
2023-01-11T18:25:34.457Z,85.50
2023-01-11T18:28:22.004Z,84.66
2023-01-11T18:30:54.269Z,84.55
2023-01-11T18:33:23.898Z,84.29
2023-01-11T18:36:01.839Z,84.29
2023-01-11T18:38:33.895Z,84.37
2023-01-11T18:41:24.355Z,83.98
2023-01-11T18:43:51.652Z,83.94
2023-01-11T18:46:18.104Z,84.47
2023-01-11T18:48:44.595Z,84.35
2023-01-11T18:51:15.492Z,84.41
2023-01-11T18:53:42.045Z,84.64
2023-01-11T18:56:08.476Z,84.96
2023-01-11T18:58:34.895Z,85.01
2023-01-11T19:01:01.377Z,85.10
2023-01-11T19:03:27.810Z,85.13
2023-01-11T19:05:54.283Z,85.41
2023-01-11T19:08:21.694Z,85.08
2023-01-11T19:10:50.419Z,85.19
2023-01-11T19:13:19.205Z,85.36
2023-01-11T19:15:46.069Z,85.69
2023-01-11T19:18:12.511Z,85.67
2023-01-11T19:20:40.838Z,85.63
2023-01-11T19:23:07.317Z,85.67
2023-01-11T19:25:33.726Z,85.66
2023-01-11T19:28:02.327Z,85.74
2023-01-11T19:30:28.929Z,86.19
2023-01-11T19:32:55.502Z,85.99
2023-01-11T19:35:23.634Z,86.06
2023-01-11T19:37:50.718Z,86.18
2023-01-11T19:40:19.644Z,85.75
2023-01-11T19:42:47.554Z,85.61
2023-01-11T19:45:14.032Z,85.23
2023-01-11T19:47:40.455Z,84.87
2023-01-11T19:50:08.003Z,84.35
2023-01-11T19:52:34.487Z,84.42
2023-01-11T19:55:00.901Z,84.02
2023-01-11T19:57:27.503Z,84.13
2023-01-11T19:59:53.909Z,83.87
2023-01-11T20:02:21.750Z,83.45
2023-01-11T20:04:49.237Z,83.22
2023-01-11T20:07:15.783Z,83.44
2023-01-11T20:09:42.220Z,82.97
2023-01-11T20:12:10.814Z,82.58
2023-01-11T20:14:38.146Z,82.47
2023-01-11T20:17:04.623Z,82.59
2023-01-11T20:19:31.132Z,82.43
2023-01-11T20:21:57.580Z,82.26
2023-01-11T20:24:28.357Z,82.49
2023-01-11T20:26:55.924Z,82.29
2023-01-11T20:29:22.418Z,82.22
2023-01-11T20:31:49.513Z,81.62
2023-01-11T20:34:17.072Z,81.55
2023-01-11T20:36:44.175Z,81.67
2023-01-11T20:39:11.510Z,81.30
2023-01-11T20:41:46.801Z,81.04
2023-01-11T20:44:15.993Z,81.25
2023-01-11T20:46:43.083Z,81.07
2023-01-11T20:49:09.519Z,81.06
2023-01-11T20:51:36.147Z,80.85
2023-01-11T20:54:04.233Z,80.90
2023-01-11T20:56:32.963Z,80.66
2023-01-11T20:59:01.444Z,80.45
2023-01-11T21:01:28.548Z,80.44
2023-01-11T21:03:57.904Z,80.10
2023-01-11T21:06:24.345Z,80.23
2023-01-11T21:08:57.503Z,79.97
2023-01-11T21:11:24.423Z,79.47
2023-01-11T21:13:52.879Z,79.47
2023-01-11T21:16:20.073Z,79.10
2023-01-11T21:18:46.491Z,79.09
2023-01-11T21:21:14.242Z,79.23
2023-01-11T21:23:40.807Z,78.92
2023-01-11T21:26:14.728Z,78.73
2023-01-11T21:28:42.063Z,78.50
2023-01-11T21:31:10.111Z,78.80
2023-01-11T21:33:37.555Z,78.62
2023-01-11T21:36:10.769Z,78.57
2023-01-11T21:38:37.187Z,78.94
2023-01-11T21:41:11.785Z,79.02
2023-01-11T21:43:38.251Z,79.28
2023-01-11T21:46:06.175Z,79.22
2023-01-11T21:48:33.319Z,79.46
2023-01-11T21:51:00.142Z,79.62
2023-01-11T21:53:31.081Z,79.32
2023-01-11T21:56:05.351Z,79.55
2023-01-11T21:58:31.935Z,79.95
2023-01-11T22:00:58.711Z,79.91
2023-01-11T22:03:28.754Z,80.13
2023-01-11T22:06:02.002Z,80.30
2023-01-11T22:08:28.661Z,80.70
2023-01-11T22:10:59.100Z,80.78
2023-01-11T22:13:27.877Z,80.94
2023-01-11T22:15:54.355Z,80.94
2023-01-11T22:18:22.179Z,81.17
2023-01-11T22:20:49.553Z,81.11
2023-01-11T22:23:15.969Z,81.23
2023-01-11T22:25:42.396Z,81.38
2023-01-11T22:28:08.805Z,81.82
2023-01-11T22:30:35.226Z,81.83
2023-01-11T22:33:01.684Z,81.92
2023-01-11T22:35:28.136Z,82.01
2023-01-11T22:37:54.537Z,81.75
2023-01-11T22:40:20.940Z,81.92
2023-01-11T22:42:47.371Z,82.07
2023-01-11T22:45:13.830Z,81.76
2023-01-11T22:47:40.240Z,81.67
2023-01-11T22:50:06.945Z,81.96
2023-01-11T22:52:33.439Z,81.96
2023-01-11T22:54:59.877Z,82.14
2023-01-11T22:57:26.285Z,82.00
2023-01-11T22:59:52.670Z,82.09
2023-01-11T23:02:19.096Z,82.38
2023-01-11T23:04:45.504Z,82.07
2023-01-11T23:07:11.941Z,82.38
2023-01-11T23:09:38.349Z,82.41
2023-01-11T23:12:24.532Z,82.95
2023-01-11T23:14:50.946Z,83.21
2023-01-11T23:17:18.964Z,83.26
2023-01-11T23:19:45.543Z,83.24
2023-01-11T23:22:15.220Z,83.36
2023-01-11T23:24:42.135Z,83.52
2023-01-11T23:27:08.636Z,83.35
2023-01-11T23:29:35.558Z,83.61
2023-01-11T23:32:02.094Z,83.52
2023-01-11T23:34:28.600Z,83.59
2023-01-11T23:36:55.068Z,83.61
2023-01-11T23:39:21.542Z,83.47
2023-01-11T23:42:06.588Z,83.37
2023-01-11T23:44:33.109Z,83.27
2023-01-11T23:47:18.127Z,83.59
2023-01-11T23:49:44.679Z,83.34
2023-01-11T23:52:11.455Z,83.30
2023-01-11T23:54:37.950Z,83.32
2023-01-11T23:57:04.426Z,83.50
2023-01-11T23:59:31.185Z,83.61
